sensor_id;sensor_type;location;lat;lon;timestamp;temperature;humidity
33105;DHT22;19476;51.448;6.674;2024-02-21T00:02:18;14.40;56.10
33105;DHT22;19476;51.448;6.674;2024-02-21T00:04:44;14.40;56.10
33105;DHT22;19476;51.448;6.674;2024-02-21T00:07:09;14.40;56.10
33105;DHT22;19476;51.448;6.674;2024-02-21T00:09:35;14.40;56.00
33105;DHT22;19476;51.448;6.674;2024-02-21T00:12:01;14.40;56.10
33105;DHT22;19476;51.448;6.674;2024-02-21T00:14:27;14.40;56.20
33105;DHT22;19476;51.448;6.674;2024-02-21T00:16:52;14.40;56.20
33105;DHT22;19476;51.448;6.674;2024-02-21T00:19:18;14.40;56.30
33105;DHT22;19476;51.448;6.674;2024-02-21T00:21:44;14.40;56.30
33105;DHT22;19476;51.448;6.674;2024-02-21T00:24:09;14.40;56.30
33105;DHT22;19476;51.448;6.674;2024-02-21T00:26:35;14.40;56.30
33105;DHT22;19476;51.448;6.674;2024-02-21T00:29:01;14.40;56.20
33105;DHT22;19476;51.448;6.674;2024-02-21T00:31:27;14.40;56.30
33105;DHT22;19476;51.448;6.674;2024-02-21T00:33:52;14.40;56.30
33105;DHT22;19476;51.448;6.674;2024-02-21T00:36:18;14.30;56.30
33105;DHT22;19476;51.448;6.674;2024-02-21T00:38:44;14.40;56.40
33105;DHT22;19476;51.448;6.674;2024-02-21T00:41:10;14.40;56.40
33105;DHT22;19476;51.448;6.674;2024-02-21T00:43:35;14.40;56.50
33105;DHT22;19476;51.448;6.674;2024-02-21T00:46:01;14.40;56.40
33105;DHT22;19476;51.448;6.674;2024-02-21T00:48:27;14.40;56.50
33105;DHT22;19476;51.448;6.674;2024-02-21T00:50:52;14.40;56.30
33105;DHT22;19476;51.448;6.674;2024-02-21T00:53:18;14.40;56.20
33105;DHT22;19476;51.448;6.674;2024-02-21T00:55:44;14.40;56.10
33105;DHT22;19476;51.448;6.674;2024-02-21T00:58:09;14.40;56.10
33105;DHT22;19476;51.448;6.674;2024-02-21T01:00:35;14.40;56.20
33105;DHT22;19476;51.448;6.674;2024-02-21T01:03:01;14.40;56.20
33105;DHT22;19476;51.448;6.674;2024-02-21T01:05:27;14.40;56.30
33105;DHT22;19476;51.448;6.674;2024-02-21T01:07:54;14.40;56.20
33105;DHT22;19476;51.448;6.674;2024-02-21T01:10:20;14.40;56.20
33105;DHT22;19476;51.448;6.674;2024-02-21T01:12:45;14.40;56.10
33105;DHT22;19476;51.448;6.674;2024-02-21T01:15:11;14.50;56.20
33105;DHT22;19476;51.448;6.674;2024-02-21T01:17:37;14.40;56.10
33105;DHT22;19476;51.448;6.674;2024-02-21T01:20:03;14.40;56.10
33105;DHT22;19476;51.448;6.674;2024-02-21T01:22:31;14.40;56.20
33105;DHT22;19476;51.448;6.674;2024-02-21T01:24:56;14.40;56.20
33105;DHT22;19476;51.448;6.674;2024-02-21T01:27:22;14.40;56.20
33105;DHT22;19476;51.448;6.674;2024-02-21T01:29:48;14.40;56.20
33105;DHT22;19476;51.448;6.674;2024-02-21T01:32:15;14.50;56.20
33105;DHT22;19476;51.448;6.674;2024-02-21T01:34:41;14.50;56.20
33105;DHT22;19476;51.448;6.674;2024-02-21T01:37:07;14.50;56.20
33105;DHT22;19476;51.448;6.674;2024-02-21T01:39:33;14.50;56.20
33105;DHT22;19476;51.448;6.674;2024-02-21T01:41:59;14.50;56.20
33105;DHT22;19476;51.448;6.674;2024-02-21T01:44:25;14.50;56.00
33105;DHT22;19476;51.448;6.674;2024-02-21T01:46:52;14.50;56.00
33105;DHT22;19476;51.448;6.674;2024-02-21T01:49:19;14.50;56.10
33105;DHT22;19476;51.448;6.674;2024-02-21T01:51:46;14.50;56.00
33105;DHT22;19476;51.448;6.674;2024-02-21T01:54:13;14.50;56.00
33105;DHT22;19476;51.448;6.674;2024-02-21T01:56:40;14.40;56.10
33105;DHT22;19476;51.448;6.674;2024-02-21T01:59:06;14.40;56.10
33105;DHT22;19476;51.448;6.674;2024-02-21T02:01:32;14.40;56.00
33105;DHT22;19476;51.448;6.674;2024-02-21T02:03:59;14.40;55.90
33105;DHT22;19476;51.448;6.674;2024-02-21T02:06:25;14.50;55.90
33105;DHT22;19476;51.448;6.674;2024-02-21T02:08:51;14.50;56.00
33105;DHT22;19476;51.448;6.674;2024-02-21T02:11:17;14.50;56.00
33105;DHT22;19476;51.448;6.674;2024-02-21T02:13:43;14.50;56.00
33105;DHT22;19476;51.448;6.674;2024-02-21T02:16:09;14.40;55.90
33105;DHT22;19476;51.448;6.674;2024-02-21T02:18:34;14.40;55.90
33105;DHT22;19476;51.448;6.674;2024-02-21T02:21:00;14.40;55.90
33105;DHT22;19476;51.448;6.674;2024-02-21T02:23:28;14.40;55.90
33105;DHT22;19476;51.448;6.674;2024-02-21T02:25:54;14.40;56.00
33105;DHT22;19476;51.448;6.674;2024-02-21T02:28:20;14.40;56.00
33105;DHT22;19476;51.448;6.674;2024-02-21T02:30:47;14.40;55.90
33105;DHT22;19476;51.448;6.674;2024-02-21T02:33:14;14.40;56.00
33105;DHT22;19476;51.448;6.674;2024-02-21T02:35:40;14.40;55.90
33105;DHT22;19476;51.448;6.674;2024-02-21T02:38:06;14.30;55.90
33105;DHT22;19476;51.448;6.674;2024-02-21T02:40:33;14.30;56.00
33105;DHT22;19476;51.448;6.674;2024-02-21T02:42:59;14.30;56.00
33105;DHT22;19476;51.448;6.674;2024-02-21T02:45:25;14.30;56.00
33105;DHT22;19476;51.448;6.674;2024-02-21T02:47:54;14.30;56.00
33105;DHT22;19476;51.448;6.674;2024-02-21T02:50:20;14.30;55.90
33105;DHT22;19476;51.448;6.674;2024-02-21T02:52:46;14.30;56.00
33105;DHT22;19476;51.448;6.674;2024-02-21T02:55:12;14.30;56.00
33105;DHT22;19476;51.448;6.674;2024-02-21T02:57:38;14.20;56.00
33105;DHT22;19476;51.448;6.674;2024-02-21T03:00:04;14.20;56.10
33105;DHT22;19476;51.448;6.674;2024-02-21T03:02:33;14.20;56.20
33105;DHT22;19476;51.448;6.674;2024-02-21T03:04:58;14.10;56.20
33105;DHT22;19476;51.448;6.674;2024-02-21T03:07:25;14.10;56.20
33105;DHT22;19476;51.448;6.674;2024-02-21T03:09:51;14.10;56.30
33105;DHT22;19476;51.448;6.674;2024-02-21T03:12:18;14.10;56.30
33105;DHT22;19476;51.448;6.674;2024-02-21T03:14:50;14.10;56.30
33105;DHT22;19476;51.448;6.674;2024-02-21T03:17:16;14.10;56.40
33105;DHT22;19476;51.448;6.674;2024-02-21T03:19:41;14.10;56.40
33105;DHT22;19476;51.448;6.674;2024-02-21T03:22:07;14.10;56.40
33105;DHT22;19476;51.448;6.674;2024-02-21T03:24:33;14.10;56.40
33105;DHT22;19476;51.448;6.674;2024-02-21T03:26:59;14.10;56.40
33105;DHT22;19476;51.448;6.674;2024-02-21T03:29:25;14.10;56.30
33105;DHT22;19476;51.448;6.674;2024-02-21T03:31:51;14.10;56.90
33105;DHT22;19476;51.448;6.674;2024-02-21T03:34:16;14.10;56.30
33105;DHT22;19476;51.448;6.674;2024-02-21T03:36:42;14.10;56.30
33105;DHT22;19476;51.448;6.674;2024-02-21T03:39:08;14.10;56.30
33105;DHT22;19476;51.448;6.674;2024-02-21T03:41:34;14.20;56.30
33105;DHT22;19476;51.448;6.674;2024-02-21T03:44:00;14.20;56.20
33105;DHT22;19476;51.448;6.674;2024-02-21T03:46:27;14.10;56.10
33105;DHT22;19476;51.448;6.674;2024-02-21T03:48:53;14.10;56.20
33105;DHT22;19476;51.448;6.674;2024-02-21T03:51:18;14.10;56.30
33105;DHT22;19476;51.448;6.674;2024-02-21T03:53:44;14.20;56.30
33105;DHT22;19476;51.448;6.674;2024-02-21T03:56:10;14.10;56.30
33105;DHT22;19476;51.448;6.674;2024-02-21T03:58:35;14.20;56.40
33105;DHT22;19476;51.448;6.674;2024-02-21T04:01:01;14.20;56.40
33105;DHT22;19476;51.448;6.674;2024-02-21T04:03:27;14.20;56.40
33105;DHT22;19476;51.448;6.674;2024-02-21T04:05:53;14.20;56.30
33105;DHT22;19476;51.448;6.674;2024-02-21T04:08:19;14.20;56.30
33105;DHT22;19476;51.448;6.674;2024-02-21T04:10:45;14.20;56.30
33105;DHT22;19476;51.448;6.674;2024-02-21T04:13:10;14.20;56.30
33105;DHT22;19476;51.448;6.674;2024-02-21T04:15:36;14.20;56.30
33105;DHT22;19476;51.448;6.674;2024-02-21T04:18:02;14.20;56.30
33105;DHT22;19476;51.448;6.674;2024-02-21T04:20:31;14.20;56.30
33105;DHT22;19476;51.448;6.674;2024-02-21T04:22:57;14.20;56.20
33105;DHT22;19476;51.448;6.674;2024-02-21T04:25:23;14.20;56.20
33105;DHT22;19476;51.448;6.674;2024-02-21T04:27:49;14.20;56.20
33105;DHT22;19476;51.448;6.674;2024-02-21T04:30:15;14.20;56.20
33105;DHT22;19476;51.448;6.674;2024-02-21T04:32:41;14.20;56.20
33105;DHT22;19476;51.448;6.674;2024-02-21T04:35:07;14.20;56.10
33105;DHT22;19476;51.448;6.674;2024-02-21T04:37:33;14.20;56.60
33105;DHT22;19476;51.448;6.674;2024-02-21T04:39:59;14.20;56.00
33105;DHT22;19476;51.448;6.674;2024-02-21T04:42:25;14.20;56.00
33105;DHT22;19476;51.448;6.674;2024-02-21T04:44:51;14.20;56.00
33105;DHT22;19476;51.448;6.674;2024-02-21T04:47:17;14.20;56.00
33105;DHT22;19476;51.448;6.674;2024-02-21T04:49:42;14.20;55.90
33105;DHT22;19476;51.448;6.674;2024-02-21T04:52:09;14.20;55.90
33105;DHT22;19476;51.448;6.674;2024-02-21T04:54:35;14.30;55.80
33105;DHT22;19476;51.448;6.674;2024-02-21T04:57:01;14.30;55.80
33105;DHT22;19476;51.448;6.674;2024-02-21T04:59:26;14.30;55.70
33105;DHT22;19476;51.448;6.674;2024-02-21T05:01:52;14.30;55.50
33105;DHT22;19476;51.448;6.674;2024-02-21T05:04:18;14.30;55.40
33105;DHT22;19476;51.448;6.674;2024-02-21T05:06:44;14.30;55.40
33105;DHT22;19476;51.448;6.674;2024-02-21T05:09:10;14.30;55.40
33105;DHT22;19476;51.448;6.674;2024-02-21T05:11:36;14.30;55.30
33105;DHT22;19476;51.448;6.674;2024-02-21T05:14:03;14.30;55.30
33105;DHT22;19476;51.448;6.674;2024-02-21T05:16:30;14.30;55.20
33105;DHT22;19476;51.448;6.674;2024-02-21T05:18:55;14.30;55.20
33105;DHT22;19476;51.448;6.674;2024-02-21T05:21:23;14.30;55.20
33105;DHT22;19476;51.448;6.674;2024-02-21T05:23:53;14.30;55.30
33105;DHT22;19476;51.448;6.674;2024-02-21T05:26:25;14.30;55.30
33105;DHT22;19476;51.448;6.674;2024-02-21T05:28:51;14.40;55.30
33105;DHT22;19476;51.448;6.674;2024-02-21T05:31:20;14.40;55.30
33105;DHT22;19476;51.448;6.674;2024-02-21T05:33:46;14.40;55.30
33105;DHT22;19476;51.448;6.674;2024-02-21T05:36:13;14.40;55.30
33105;DHT22;19476;51.448;6.674;2024-02-21T05:38:39;14.40;55.30
33105;DHT22;19476;51.448;6.674;2024-02-21T05:41:05;14.40;55.30
33105;DHT22;19476;51.448;6.674;2024-02-21T05:43:31;14.40;55.40
33105;DHT22;19476;51.448;6.674;2024-02-21T05:45:57;14.50;55.50
33105;DHT22;19476;51.448;6.674;2024-02-21T05:48:23;14.50;55.20
33105;DHT22;19476;51.448;6.674;2024-02-21T05:50:49;14.50;55.10
33105;DHT22;19476;51.448;6.674;2024-02-21T05:53:15;14.50;55.10
33105;DHT22;19476;51.448;6.674;2024-02-21T05:55:41;14.50;55.10
33105;DHT22;19476;51.448;6.674;2024-02-21T05:58:06;14.50;55.10
33105;DHT22;19476;51.448;6.674;2024-02-21T06:00:33;14.40;55.10
33105;DHT22;19476;51.448;6.674;2024-02-21T06:02:59;14.40;55.70
33105;DHT22;19476;51.448;6.674;2024-02-21T06:05:25;14.40;55.10
33105;DHT22;19476;51.448;6.674;2024-02-21T06:07:50;14.40;55.30
33105;DHT22;19476;51.448;6.674;2024-02-21T06:10:16;14.40;55.30
33105;DHT22;19476;51.448;6.674;2024-02-21T06:12:42;14.40;55.20
33105;DHT22;19476;51.448;6.674;2024-02-21T06:15:08;14.40;55.20
33105;DHT22;19476;51.448;6.674;2024-02-21T06:17:34;14.40;55.20
33105;DHT22;19476;51.448;6.674;2024-02-21T06:20:00;14.30;55.20
33105;DHT22;19476;51.448;6.674;2024-02-21T06:22:26;14.40;55.20
33105;DHT22;19476;51.448;6.674;2024-02-21T06:24:51;14.30;55.10
33105;DHT22;19476;51.448;6.674;2024-02-21T06:27:19;14.30;55.20
33105;DHT22;19476;51.448;6.674;2024-02-21T06:29:45;14.00;55.10
33105;DHT22;19476;51.448;6.674;2024-02-21T06:32:11;14.20;55.30
33105;DHT22;19476;51.448;6.674;2024-02-21T06:34:37;14.20;55.40
33105;DHT22;19476;51.448;6.674;2024-02-21T06:37:02;14.10;55.50
33105;DHT22;19476;51.448;6.674;2024-02-21T06:39:29;14.10;55.50
33105;DHT22;19476;51.448;6.674;2024-02-21T06:41:55;14.10;55.60
33105;DHT22;19476;51.448;6.674;2024-02-21T06:44:21;14.10;55.60
33105;DHT22;19476;51.448;6.674;2024-02-21T06:46:47;14.10;55.70
33105;DHT22;19476;51.448;6.674;2024-02-21T06:49:13;14.10;55.80
33105;DHT22;19476;51.448;6.674;2024-02-21T06:51:42;14.10;55.80
33105;DHT22;19476;51.448;6.674;2024-02-21T06:54:08;14.10;55.80
33105;DHT22;19476;51.448;6.674;2024-02-21T06:56:35;14.10;55.90
33105;DHT22;19476;51.448;6.674;2024-02-21T06:59:01;14.10;55.80
33105;DHT22;19476;51.448;6.674;2024-02-21T07:01:27;14.10;55.80
33105;DHT22;19476;51.448;6.674;2024-02-21T07:03:52;14.10;55.80
33105;DHT22;19476;51.448;6.674;2024-02-21T07:06:18;14.10;55.90
33105;DHT22;19476;51.448;6.674;2024-02-21T07:08:44;13.90;55.80
33105;DHT22;19476;51.448;6.674;2024-02-21T07:11:11;14.10;55.90
33105;DHT22;19476;51.448;6.674;2024-02-21T07:13:36;14.00;55.80
33105;DHT22;19476;51.448;6.674;2024-02-21T07:16:02;14.00;55.80
33105;DHT22;19476;51.448;6.674;2024-02-21T07:18:28;14.00;55.80
33105;DHT22;19476;51.448;6.674;2024-02-21T07:20:53;14.00;55.90
33105;DHT22;19476;51.448;6.674;2024-02-21T07:23:19;14.00;56.40
33105;DHT22;19476;51.448;6.674;2024-02-21T07:25:45;14.00;56.00
33105;DHT22;19476;51.448;6.674;2024-02-21T07:28:11;14.00;56.00
33105;DHT22;19476;51.448;6.674;2024-02-21T07:30:37;14.00;56.00
33105;DHT22;19476;51.448;6.674;2024-02-21T07:33:03;14.00;55.90
33105;DHT22;19476;51.448;6.674;2024-02-21T07:35:28;14.10;56.00
33105;DHT22;19476;51.448;6.674;2024-02-21T07:37:54;14.10;55.90
33105;DHT22;19476;51.448;6.674;2024-02-21T07:40:20;14.10;55.90
33105;DHT22;19476;51.448;6.674;2024-02-21T07:42:45;14.00;55.70
33105;DHT22;19476;51.448;6.674;2024-02-21T07:45:11;14.10;55.80
33105;DHT22;19476;51.448;6.674;2024-02-21T07:47:37;14.10;55.90
33105;DHT22;19476;51.448;6.674;2024-02-21T07:50:03;14.10;55.80
33105;DHT22;19476;51.448;6.674;2024-02-21T07:52:29;14.10;55.70
33105;DHT22;19476;51.448;6.674;2024-02-21T07:54:55;14.10;55.70
33105;DHT22;19476;51.448;6.674;2024-02-21T07:57:21;14.10;55.70
33105;DHT22;19476;51.448;6.674;2024-02-21T07:59:47;14.10;55.10
33105;DHT22;19476;51.448;6.674;2024-02-21T08:02:16;14.10;55.70
33105;DHT22;19476;51.448;6.674;2024-02-21T08:04:42;14.10;55.50
33105;DHT22;19476;51.448;6.674;2024-02-21T08:07:09;14.10;55.40
33105;DHT22;19476;51.448;6.674;2024-02-21T08:09:35;14.10;55.40
33105;DHT22;19476;51.448;6.674;2024-02-21T08:12:04;14.10;55.30
33105;DHT22;19476;51.448;6.674;2024-02-21T08:14:29;14.10;55.30
33105;DHT22;19476;51.448;6.674;2024-02-21T08:16:55;14.30;55.30
33105;DHT22;19476;51.448;6.674;2024-02-21T08:19:21;14.10;55.30
33105;DHT22;19476;51.448;6.674;2024-02-21T08:21:48;14.10;55.20
33105;DHT22;19476;51.448;6.674;2024-02-21T08:24:15;14.10;55.10
33105;DHT22;19476;51.448;6.674;2024-02-21T08:26:41;14.10;55.10
33105;DHT22;19476;51.448;6.674;2024-02-21T08:29:07;14.20;55.10
33105;DHT22;19476;51.448;6.674;2024-02-21T08:31:33;14.20;55.20
33105;DHT22;19476;51.448;6.674;2024-02-21T08:34:00;14.20;55.20
33105;DHT22;19476;51.448;6.674;2024-02-21T08:36:35;14.20;55.30
33105;DHT22;19476;51.448;6.674;2024-02-21T08:39:02;14.20;55.40
33105;DHT22;19476;51.448;6.674;2024-02-21T08:41:30;14.20;55.50
33105;DHT22;19476;51.448;6.674;2024-02-21T08:43:56;14.20;55.60
33105;DHT22;19476;51.448;6.674;2024-02-21T08:46:23;14.20;55.60
33105;DHT22;19476;51.448;6.674;2024-02-21T08:48:50;14.20;55.80
33105;DHT22;19476;51.448;6.674;2024-02-21T08:51:17;14.20;55.90
33105;DHT22;19476;51.448;6.674;2024-02-21T08:53:44;14.10;56.00
33105;DHT22;19476;51.448;6.674;2024-02-21T08:56:10;14.10;55.90
33105;DHT22;19476;51.448;6.674;2024-02-21T08:58:36;14.10;55.60
33105;DHT22;19476;51.448;6.674;2024-02-21T09:01:06;14.10;55.50
33105;DHT22;19476;51.448;6.674;2024-02-21T09:03:36;14.10;55.20
33105;DHT22;19476;51.448;6.674;2024-02-21T09:06:03;14.10;55.20
33105;DHT22;19476;51.448;6.674;2024-02-21T09:08:29;14.10;55.30
33105;DHT22;19476;51.448;6.674;2024-02-21T09:10:55;14.10;55.20
33105;DHT22;19476;51.448;6.674;2024-02-21T09:13:21;14.10;55.10
33105;DHT22;19476;51.448;6.674;2024-02-21T09:15:50;14.10;54.90
33105;DHT22;19476;51.448;6.674;2024-02-21T09:18:16;14.10;54.50
33105;DHT22;19476;51.448;6.674;2024-02-21T09:20:45;14.10;54.70
33105;DHT22;19476;51.448;6.674;2024-02-21T09:23:12;14.10;54.70
33105;DHT22;19476;51.448;6.674;2024-02-21T09:25:37;14.10;55.10
33105;DHT22;19476;51.448;6.674;2024-02-21T09:28:04;14.10;54.30
33105;DHT22;19476;51.448;6.674;2024-02-21T09:30:31;14.10;54.10
33105;DHT22;19476;51.448;6.674;2024-02-21T09:32:57;14.10;54.20
33105;DHT22;19476;51.448;6.674;2024-02-21T09:35:25;14.10;54.20
33105;DHT22;19476;51.448;6.674;2024-02-21T09:37:53;14.10;54.20
33105;DHT22;19476;51.448;6.674;2024-02-21T09:40:19;14.50;54.30
33105;DHT22;19476;51.448;6.674;2024-02-21T09:42:47;14.10;54.00
33105;DHT22;19476;51.448;6.674;2024-02-21T09:45:20;14.10;54.10
33105;DHT22;19476;51.448;6.674;2024-02-21T09:50:44;14.20;53.80
33105;DHT22;19476;51.448;6.674;2024-02-21T09:53:14;14.20;53.80
33105;DHT22;19476;51.448;6.674;2024-02-21T09:55:40;14.20;53.60
33105;DHT22;19476;51.448;6.674;2024-02-21T09:58:10;14.20;53.70
33105;DHT22;19476;51.448;6.674;2024-02-21T10:00:36;14.20;53.70
33105;DHT22;19476;51.448;6.674;2024-02-21T10:03:02;14.20;53.60
33105;DHT22;19476;51.448;6.674;2024-02-21T10:05:35;14.30;53.60
33105;DHT22;19476;51.448;6.674;2024-02-21T10:08:02;14.30;53.80
33105;DHT22;19476;51.448;6.674;2024-02-21T10:10:28;14.30;53.70
33105;DHT22;19476;51.448;6.674;2024-02-21T10:12:56;14.30;53.30
33105;DHT22;19476;51.448;6.674;2024-02-21T10:15:23;14.30;53.10
33105;DHT22;19476;51.448;6.674;2024-02-21T10:18:00;14.30;53.10
33105;DHT22;19476;51.448;6.674;2024-02-21T10:20:26;14.40;52.70
33105;DHT22;19476;51.448;6.674;2024-02-21T10:23:03;14.30;52.90
33105;DHT22;19476;51.448;6.674;2024-02-21T10:25:34;14.30;52.40
33105;DHT22;19476;51.448;6.674;2024-02-21T10:28:01;14.40;52.90
33105;DHT22;19476;51.448;6.674;2024-02-21T10:30:27;14.30;52.70
33105;DHT22;19476;51.448;6.674;2024-02-21T10:32:53;14.40;52.50
33105;DHT22;19476;51.448;6.674;2024-02-21T10:35:29;14.40;52.60
33105;DHT22;19476;51.448;6.674;2024-02-21T10:37:56;14.40;52.30
33105;DHT22;19476;51.448;6.674;2024-02-21T10:40:29;14.40;52.40
33105;DHT22;19476;51.448;6.674;2024-02-21T10:43:00;14.40;52.10
33105;DHT22;19476;51.448;6.674;2024-02-21T10:45:35;14.40;52.10
33105;DHT22;19476;51.448;6.674;2024-02-21T10:48:11;14.50;52.20
33105;DHT22;19476;51.448;6.674;2024-02-21T10:50:57;14.50;52.30
33105;DHT22;19476;51.448;6.674;2024-02-21T10:53:45;14.50;52.10
33105;DHT22;19476;51.448;6.674;2024-02-21T10:56:29;14.60;52.10
33105;DHT22;19476;51.448;6.674;2024-02-21T10:58:57;14.60;52.10
33105;DHT22;19476;51.448;6.674;2024-02-21T11:01:23;14.70;52.20
33105;DHT22;19476;51.448;6.674;2024-02-21T11:03:51;14.70;51.90
33105;DHT22;19476;51.448;6.674;2024-02-21T11:06:20;14.70;51.80
33105;DHT22;19476;51.448;6.674;2024-02-21T11:08:46;14.80;51.80
33105;DHT22;19476;51.448;6.674;2024-02-21T11:11:13;14.80;51.70
33105;DHT22;19476;51.448;6.674;2024-02-21T11:13:44;14.80;51.50
33105;DHT22;19476;51.448;6.674;2024-02-21T11:16:12;14.90;51.30
33105;DHT22;19476;51.448;6.674;2024-02-21T11:18:46;14.90;51.40
33105;DHT22;19476;51.448;6.674;2024-02-21T11:21:12;14.90;51.40
33105;DHT22;19476;51.448;6.674;2024-02-21T11:23:38;14.90;51.20
33105;DHT22;19476;51.448;6.674;2024-02-21T11:26:10;14.90;51.20
33105;DHT22;19476;51.448;6.674;2024-02-21T11:28:36;14.90;51.00
33105;DHT22;19476;51.448;6.674;2024-02-21T11:31:12;15.00;51.30
33105;DHT22;19476;51.448;6.674;2024-02-21T11:33:42;15.00;51.30
33105;DHT22;19476;51.448;6.674;2024-02-21T11:36:09;15.00;51.20
33105;DHT22;19476;51.448;6.674;2024-02-21T11:38:35;15.00;51.10
33105;DHT22;19476;51.448;6.674;2024-02-21T11:41:01;15.10;50.90
33105;DHT22;19476;51.448;6.674;2024-02-21T11:43:27;15.10;50.90
33105;DHT22;19476;51.448;6.674;2024-02-21T11:46:01;15.10;50.70
33105;DHT22;19476;51.448;6.674;2024-02-21T11:48:26;15.10;50.60
33105;DHT22;19476;51.448;6.674;2024-02-21T11:50:54;15.10;50.70
33105;DHT22;19476;51.448;6.674;2024-02-21T11:53:20;15.20;50.70
33105;DHT22;19476;51.448;6.674;2024-02-21T11:55:46;15.20;50.70
33105;DHT22;19476;51.448;6.674;2024-02-21T11:58:12;15.20;50.50
33105;DHT22;19476;51.448;6.674;2024-02-21T12:00:37;15.30;50.40
33105;DHT22;19476;51.448;6.674;2024-02-21T12:03:04;15.30;50.40
33105;DHT22;19476;51.448;6.674;2024-02-21T12:05:31;15.30;50.40
33105;DHT22;19476;51.448;6.674;2024-02-21T12:07:57;15.40;50.20
33105;DHT22;19476;51.448;6.674;2024-02-21T12:10:23;15.40;49.90
33105;DHT22;19476;51.448;6.674;2024-02-21T12:12:49;15.40;50.10
33105;DHT22;19476;51.448;6.674;2024-02-21T12:15:18;15.40;50.00
33105;DHT22;19476;51.448;6.674;2024-02-21T12:17:44;15.40;50.10
33105;DHT22;19476;51.448;6.674;2024-02-21T12:20:10;15.50;50.00
33105;DHT22;19476;51.448;6.674;2024-02-21T12:22:43;15.50;49.70
33105;DHT22;19476;51.448;6.674;2024-02-21T12:25:19;15.50;49.30
33105;DHT22;19476;51.448;6.674;2024-02-21T12:27:46;15.50;48.90
33105;DHT22;19476;51.448;6.674;2024-02-21T12:30:12;15.50;49.30
33105;DHT22;19476;51.448;6.674;2024-02-21T12:32:37;15.60;49.50
33105;DHT22;19476;51.448;6.674;2024-02-21T12:35:04;15.60;49.30
33105;DHT22;19476;51.448;6.674;2024-02-21T12:37:30;15.60;48.90
33105;DHT22;19476;51.448;6.674;2024-02-21T12:39:55;15.70;48.80
33105;DHT22;19476;51.448;6.674;2024-02-21T12:42:21;15.70;48.70
33105;DHT22;19476;51.448;6.674;2024-02-21T12:44:49;15.70;48.90
33105;DHT22;19476;51.448;6.674;2024-02-21T12:47:15;15.80;48.80
33105;DHT22;19476;51.448;6.674;2024-02-21T12:49:40;15.80;48.70
33105;DHT22;19476;51.448;6.674;2024-02-21T12:52:06;15.90;48.10
33105;DHT22;19476;51.448;6.674;2024-02-21T12:54:32;15.90;48.00
33105;DHT22;19476;51.448;6.674;2024-02-21T12:56:59;16.00;47.50
33105;DHT22;19476;51.448;6.674;2024-02-21T12:59:29;16.20;47.60
33105;DHT22;19476;51.448;6.674;2024-02-21T13:01:55;16.10;47.40
33105;DHT22;19476;51.448;6.674;2024-02-21T13:04:21;15.90;47.40
33105;DHT22;19476;51.448;6.674;2024-02-21T13:06:49;16.10;47.60
33105;DHT22;19476;51.448;6.674;2024-02-21T13:09:15;16.20;47.40
33105;DHT22;19476;51.448;6.674;2024-02-21T13:11:42;16.20;47.30
33105;DHT22;19476;51.448;6.674;2024-02-21T13:14:10;16.30;47.30
33105;DHT22;19476;51.448;6.674;2024-02-21T13:16:35;16.30;47.20
33105;DHT22;19476;51.448;6.674;2024-02-21T13:19:05;16.30;47.10
33105;DHT22;19476;51.448;6.674;2024-02-21T13:21:31;16.40;47.00
33105;DHT22;19476;51.448;6.674;2024-02-21T13:23:57;16.40;47.00
33105;DHT22;19476;51.448;6.674;2024-02-21T13:26:23;16.40;46.80
33105;DHT22;19476;51.448;6.674;2024-02-21T13:28:48;16.60;46.90
33105;DHT22;19476;51.448;6.674;2024-02-21T13:31:15;16.60;46.60
33105;DHT22;19476;51.448;6.674;2024-02-21T13:33:42;16.60;46.40
33105;DHT22;19476;51.448;6.674;2024-02-21T13:36:10;16.60;46.40
33105;DHT22;19476;51.448;6.674;2024-02-21T13:38:35;16.60;46.30
33105;DHT22;19476;51.448;6.674;2024-02-21T13:41:02;16.60;45.90
33105;DHT22;19476;51.448;6.674;2024-02-21T13:43:28;16.60;46.10
33105;DHT22;19476;51.448;6.674;2024-02-21T13:45:58;16.60;46.20
33105;DHT22;19476;51.448;6.674;2024-02-21T13:48:24;16.60;46.20
33105;DHT22;19476;51.448;6.674;2024-02-21T13:50:50;16.60;46.10
33105;DHT22;19476;51.448;6.674;2024-02-21T13:53:16;16.60;46.10
33105;DHT22;19476;51.448;6.674;2024-02-21T13:55:44;16.50;46.10
33105;DHT22;19476;51.448;6.674;2024-02-21T13:58:10;16.50;46.10
33105;DHT22;19476;51.448;6.674;2024-02-21T14:00:36;16.50;46.10
33105;DHT22;19476;51.448;6.674;2024-02-21T14:03:02;16.50;46.40
33105;DHT22;19476;51.448;6.674;2024-02-21T14:05:28;16.40;46.40
33105;DHT22;19476;51.448;6.674;2024-02-21T14:07:54;16.40;46.40
33105;DHT22;19476;51.448;6.674;2024-02-21T14:10:23;16.40;46.40
33105;DHT22;19476;51.448;6.674;2024-02-21T14:12:49;16.40;46.50
33105;DHT22;19476;51.448;6.674;2024-02-21T14:15:15;16.40;46.60
33105;DHT22;19476;51.448;6.674;2024-02-21T14:17:42;16.40;46.50
33105;DHT22;19476;51.448;6.674;2024-02-21T14:20:08;16.40;46.60
33105;DHT22;19476;51.448;6.674;2024-02-21T14:22:34;16.50;46.70
33105;DHT22;19476;51.448;6.674;2024-02-21T14:25:01;16.50;46.40
33105;DHT22;19476;51.448;6.674;2024-02-21T14:27:28;16.50;46.60
33105;DHT22;19476;51.448;6.674;2024-02-21T14:29:53;16.50;46.50
33105;DHT22;19476;51.448;6.674;2024-02-21T14:32:19;16.60;46.60
33105;DHT22;19476;51.448;6.674;2024-02-21T14:34:46;16.60;46.70
33105;DHT22;19476;51.448;6.674;2024-02-21T14:37:12;16.60;46.50
33105;DHT22;19476;51.448;6.674;2024-02-21T14:39:37;16.60;46.50
33105;DHT22;19476;51.448;6.674;2024-02-21T14:42:03;16.60;46.60
33105;DHT22;19476;51.448;6.674;2024-02-21T14:44:29;16.70;46.50
33105;DHT22;19476;51.448;6.674;2024-02-21T14:46:55;16.40;46.10
33105;DHT22;19476;51.448;6.674;2024-02-21T14:49:20;16.70;46.80
33105;DHT22;19476;51.448;6.674;2024-02-21T14:51:46;16.70;46.20
33105;DHT22;19476;51.448;6.674;2024-02-21T14:54:12;16.70;46.40
33105;DHT22;19476;51.448;6.674;2024-02-21T14:56:38;16.70;46.10
33105;DHT22;19476;51.448;6.674;2024-02-21T14:59:04;16.70;46.20
33105;DHT22;19476;51.448;6.674;2024-02-21T15:01:35;16.70;46.40
33105;DHT22;19476;51.448;6.674;2024-02-21T15:04:04;16.70;46.40
33105;DHT22;19476;51.448;6.674;2024-02-21T15:06:29;16.60;46.40
33105;DHT22;19476;51.448;6.674;2024-02-21T15:08:57;16.60;46.50
33105;DHT22;19476;51.448;6.674;2024-02-21T15:11:23;16.60;46.50
33105;DHT22;19476;51.448;6.674;2024-02-21T15:13:49;16.60;46.50
33105;DHT22;19476;51.448;6.674;2024-02-21T15:16:15;16.60;46.60
33105;DHT22;19476;51.448;6.674;2024-02-21T15:18:42;16.60;46.60
33105;DHT22;19476;51.448;6.674;2024-02-21T15:21:07;16.60;46.70
33105;DHT22;19476;51.448;6.674;2024-02-21T15:23:39;16.60;46.70
33105;DHT22;19476;51.448;6.674;2024-02-21T15:26:04;16.50;46.70
33105;DHT22;19476;51.448;6.674;2024-02-21T15:28:30;16.50;46.70
33105;DHT22;19476;51.448;6.674;2024-02-21T15:30:56;16.50;46.60